createdAt,value
2023-04-28T00:00:50.180Z,22.20
2023-04-28T00:03:22.911Z,22.20
2023-04-28T00:05:55.885Z,22.10
2023-04-28T00:08:28.012Z,22.10
2023-04-28T00:10:58.790Z,21.90
2023-04-28T00:13:30.005Z,21.90
2023-04-28T00:16:00.933Z,21.90
2023-04-28T00:18:34.202Z,22.00
2023-04-28T00:21:05.313Z,22.00
2023-04-28T00:23:36.179Z,22.00
2023-04-28T00:26:07.052Z,22.00
2023-04-28T00:28:37.832Z,21.90
2023-04-28T00:31:14.780Z,21.90
2023-04-28T00:33:47.754Z,21.80
2023-04-28T00:36:18.534Z,21.80
2023-04-28T00:38:49.390Z,21.80
2023-04-28T00:41:20.254Z,21.80
2023-04-28T00:43:52.359Z,21.90
2023-04-28T00:46:27.716Z,21.70
2023-04-28T00:49:01.339Z,21.70
2023-04-28T00:51:34.467Z,21.60
2023-04-28T00:54:05.392Z,21.80
2023-04-28T00:56:36.508Z,22.10
2023-04-28T00:59:07.494Z,22.30
2023-04-28T01:01:39.416Z,22.50
2023-04-28T01:04:12.630Z,22.50
2023-04-28T01:06:47.212Z,22.80
2023-04-28T01:09:17.937Z,22.80
2023-04-28T01:11:48.743Z,23.20
2023-04-28T01:14:19.593Z,23.10
2023-04-28T01:16:50.554Z,23.10
2023-04-28T01:19:26.413Z,23.00
2023-04-28T01:21:57.686Z,23.10
2023-04-28T01:24:31.615Z,23.10
2023-04-28T01:27:02.449Z,23.20
2023-04-28T01:29:33.451Z,23.10
2023-04-28T01:32:04.700Z,23.00
2023-04-28T01:34:35.954Z,23.20
2023-04-28T01:37:07.680Z,23.20
2023-04-28T01:39:41.156Z,22.50
2023-04-28T01:42:12.091Z,22.30
2023-04-28T01:44:43.911Z,22.50
2023-04-28T01:47:15.500Z,22.50
2023-04-28T01:49:48.332Z,22.30
2023-04-28T01:52:20.796Z,22.10
2023-04-28T01:54:54.915Z,22.00
2023-04-28T01:57:26.571Z,21.70
2023-04-28T01:59:58.167Z,21.40
2023-04-28T02:02:30.486Z,21.00
2023-04-28T02:05:02.780Z,20.70
2023-04-28T02:07:34.093Z,20.40
2023-04-28T02:10:08.777Z,20.10
2023-04-28T02:12:40.739Z,19.80
2023-04-28T02:15:13.598Z,19.50
2023-04-28T02:17:45.711Z,19.30
2023-04-28T02:20:17.519Z,19.10
2023-04-28T02:22:49.916Z,18.80
2023-04-28T02:25:29.537Z,18.70
2023-04-28T02:28:06.089Z,18.60
2023-04-28T02:30:37.977Z,18.50
2023-04-28T02:33:10.185Z,18.40
2023-04-28T02:35:41.452Z,18.30
2023-04-28T02:38:12.824Z,18.20
2023-04-28T02:40:46.411Z,18.10
2023-04-28T02:43:17.912Z,18.00
2023-04-28T02:45:50.207Z,17.90
2023-04-28T02:48:21.627Z,17.80
2023-04-28T02:50:54.610Z,17.70
2023-04-28T02:53:26.607Z,17.60
2023-04-28T02:56:01.022Z,17.40
2023-04-28T02:58:33.174Z,17.40
2023-04-28T03:01:05.021Z,17.30
2023-04-28T03:03:37.040Z,17.20
2023-04-28T03:06:08.786Z,17.10
2023-04-28T03:08:40.129Z,16.90
2023-04-28T03:11:14.073Z,16.80
2023-04-28T03:13:45.227Z,16.70
2023-04-28T03:16:17.299Z,16.60
2023-04-28T03:18:49.147Z,16.50
2023-04-28T03:21:20.025Z,16.40
2023-04-28T03:23:52.028Z,16.40
2023-04-28T03:26:25.336Z,16.30
2023-04-28T03:28:57.741Z,16.20
2023-04-28T03:31:29.306Z,16.10
2023-04-28T03:34:00.642Z,16.00
2023-04-28T03:36:33.643Z,15.90
2023-04-28T03:39:05.667Z,15.80
2023-04-28T03:41:40.039Z,15.70
2023-04-28T03:44:11.758Z,15.60
2023-04-28T03:46:42.834Z,15.60
2023-04-28T03:49:14.297Z,15.50
2023-04-28T03:51:46.357Z,15.40
2023-04-28T03:54:17.755Z,15.30
2023-04-28T03:56:51.729Z,15.20
2023-04-28T03:59:23.805Z,15.20
2023-04-28T04:01:55.990Z,15.10
2023-04-28T04:04:27.712Z,15.10
2023-04-28T04:06:59.756Z,15.10
2023-04-28T04:09:30.511Z,15.10
2023-04-28T04:12:04.039Z,15.00
2023-04-28T04:14:35.905Z,15.00
2023-04-28T04:17:07.498Z,14.90
2023-04-28T04:19:39.302Z,14.90
2023-04-28T04:22:10.460Z,14.80
2023-04-28T04:24:41.787Z,14.70
2023-04-28T04:27:15.330Z,14.60
2023-04-28T04:29:47.032Z,14.50
2023-04-28T04:32:18.992Z,14.50
2023-04-28T04:34:50.708Z,14.40
2023-04-28T04:37:22.256Z,14.30
2023-04-28T04:39:53.509Z,14.30
2023-04-28T04:42:26.588Z,14.30
2023-04-28T04:44:57.779Z,14.20
2023-04-28T04:47:29.511Z,14.20
2023-04-28T04:50:01.726Z,14.10
2023-04-28T04:52:33.124Z,14.00
2023-04-28T04:55:04.685Z,14.00
2023-04-28T04:57:39.287Z,14.00
2023-04-28T05:00:11.328Z,13.90
2023-04-28T05:02:43.910Z,13.80
2023-04-28T05:05:21.150Z,13.70
2023-04-28T05:07:55.305Z,13.70
2023-04-28T05:10:27.284Z,13.70
2023-04-28T05:13:00.647Z,13.70
2023-04-28T05:15:32.568Z,13.70
2023-04-28T05:18:09.814Z,13.70
2023-04-28T05:20:41.540Z,13.60
2023-04-28T05:23:13.081Z,13.60
2023-04-28T05:25:44.776Z,13.50
2023-04-28T05:28:19.551Z,13.50
2023-04-28T05:30:52.227Z,13.40
2023-04-28T05:33:25.235Z,13.40
2023-04-28T05:35:56.254Z,13.30
2023-04-28T05:38:27.924Z,13.30
2023-04-28T05:40:58.890Z,13.30
2023-04-28T05:43:32.075Z,13.30
2023-04-28T05:46:04.164Z,13.20
2023-04-28T05:48:37.463Z,13.20
2023-04-28T05:51:09.086Z,13.10
2023-04-28T05:53:41.038Z,13.10
2023-04-28T05:56:12.228Z,13.10
2023-04-28T05:58:46.490Z,13.10
2023-04-28T06:01:18.045Z,13.00
2023-04-28T06:03:50.681Z,13.00
2023-04-28T06:06:23.433Z,12.90
2023-04-28T06:08:54.981Z,12.90
2023-04-28T06:11:25.824Z,12.90
2023-04-28T06:13:59.738Z,12.90
2023-04-28T06:16:31.776Z,12.90
2023-04-28T06:19:03.095Z,12.90
2023-04-28T06:21:34.555Z,12.80
2023-04-28T06:24:06.515Z,12.80
2023-04-28T06:26:38.645Z,12.80
2023-04-28T06:29:11.882Z,12.80
2023-04-28T06:31:43.362Z,12.80
2023-04-28T06:34:15.277Z,12.70
2023-04-28T06:36:46.240Z,12.60
2023-04-28T06:39:17.589Z,12.60
2023-04-28T06:41:49.024Z,12.60
2023-04-28T06:44:22.283Z,12.60
2023-04-28T06:46:53.674Z,12.50
2023-04-28T06:49:25.138Z,12.50
2023-04-28T06:51:57.383Z,12.50
2023-04-28T06:54:29.153Z,12.40
2023-04-28T06:57:00.801Z,12.40
2023-04-28T06:59:34.691Z,12.40
2023-04-28T07:02:06.754Z,12.40
2023-04-28T07:04:37.825Z,12.30
2023-04-28T07:07:09.968Z,12.30
2023-04-28T07:09:42.020Z,12.30
2023-04-28T07:12:13.242Z,12.30
2023-04-28T07:14:46.609Z,12.20
2023-04-28T07:17:18.356Z,12.20
2023-04-28T07:19:51.148Z,12.20
2023-04-28T07:22:22.830Z,12.20
2023-04-28T07:24:54.743Z,12.10
2023-04-28T07:27:27.162Z,12.10
2023-04-28T07:30:03.044Z,12.10
2023-04-28T07:32:37.999Z,12.10
2023-04-28T07:35:11.664Z,12.00
2023-04-28T07:37:43.089Z,12.00
2023-04-28T07:40:15.176Z,11.90
2023-04-28T07:42:47.195Z,11.90
2023-04-28T07:45:20.554Z,11.90
2023-04-28T07:47:52.972Z,11.80
2023-04-28T07:50:24.540Z,11.80
2023-04-28T07:52:55.445Z,11.70
2023-04-28T07:55:27.035Z,11.70
2023-04-28T07:57:59.813Z,11.60
2023-04-28T08:00:32.348Z,11.50
2023-04-28T08:03:03.666Z,11.50
2023-04-28T08:05:35.810Z,11.50
2023-04-28T08:08:07.134Z,11.40
2023-04-28T08:10:38.851Z,11.40
2023-04-28T08:13:10.702Z,11.30
2023-04-28T08:15:44.076Z,11.30
2023-04-28T08:18:16.253Z,11.20
2023-04-28T08:20:47.461Z,11.20
2023-04-28T08:23:18.983Z,11.10
2023-04-28T08:25:50.886Z,11.10
2023-04-28T08:28:22.485Z,11.10
2023-04-28T08:30:56.657Z,11.00
2023-04-28T08:33:28.051Z,11.00
2023-04-28T08:36:00.219Z,11.00
2023-04-28T08:38:31.271Z,11.00
2023-04-28T08:41:02.934Z,10.90
2023-04-28T08:43:36.550Z,10.90
2023-04-28T08:46:11.879Z,10.80
2023-04-28T08:48:46.168Z,10.70
2023-04-28T08:51:19.306Z,10.70
2023-04-28T08:54:18.773Z,10.60
2023-04-28T08:56:50.797Z,10.60
2023-04-28T08:59:22.598Z,10.50
2023-04-28T09:01:55.450Z,10.50
2023-04-28T09:04:27.884Z,10.50
2023-04-28T09:06:59.965Z,10.50
2023-04-28T09:09:36.235Z,10.40
2023-04-28T09:12:10.128Z,10.40
2023-04-28T09:14:42.038Z,10.40
2023-04-28T09:17:19.174Z,10.40
2023-04-28T09:19:50.664Z,10.40
2023-04-28T09:22:31.534Z,10.30
2023-04-28T09:25:15.314Z,10.30
2023-04-28T09:27:46.796Z,10.30
2023-04-28T09:30:18.418Z,10.30
2023-04-28T09:33:11.458Z,10.30
2023-04-28T09:35:48.183Z,10.20
2023-04-28T09:38:20.126Z,10.20
2023-04-28T09:40:56.277Z,10.20
2023-04-28T09:43:29.123Z,10.20
2023-04-28T09:46:02.424Z,10.20
2023-04-28T09:48:38.023Z,10.20
2023-04-28T09:51:12.908Z,10.10
2023-04-28T09:53:45.662Z,10.10
2023-04-28T09:56:20.678Z,10.10
2023-04-28T09:58:53.946Z,10.10
2023-04-28T10:01:25.219Z,10.10
2023-04-28T10:04:01.568Z,10.10
2023-04-28T10:06:33.595Z,10.10
2023-04-28T10:09:05.561Z,10.10
2023-04-28T10:11:38.110Z,10.10
2023-04-28T10:14:11.367Z,10.00
2023-04-28T10:16:43.700Z,10.00
2023-04-28T10:19:17.788Z,9.90
2023-04-28T10:21:57.805Z,9.90
2023-04-28T10:24:33.391Z,9.90
2023-04-28T10:27:13.243Z,9.80
2023-04-28T10:29:44.280Z,9.90
2023-04-28T10:32:24.151Z,9.90
2023-04-28T10:35:18.718Z,9.90
2023-04-28T10:38:09.796Z,9.90
2023-04-28T10:40:42.739Z,9.90
2023-04-28T10:43:15.290Z,9.90
2023-04-28T10:46:07.051Z,9.90
2023-04-28T10:49:02.589Z,9.90
2023-04-28T10:51:39.677Z,9.90
2023-04-28T10:54:21.049Z,9.80
2023-04-28T10:57:23.014Z,9.80
2023-04-28T10:59:55.745Z,9.80
2023-04-28T11:02:47.890Z,9.70
2023-04-28T11:05:22.969Z,9.70
2023-04-28T11:08:36.509Z,9.60
2023-04-28T11:11:28.580Z,9.60
2023-04-28T11:14:28.587Z,9.70
2023-04-28T11:17:00.809Z,9.70
2023-04-28T11:19:33.026Z,9.60
2023-04-28T11:22:05.513Z,9.60
2023-04-28T11:24:37.014Z,9.60
2023-04-28T11:27:11.107Z,9.60
2023-04-28T11:29:44.586Z,9.50
2023-04-28T11:32:16.342Z,9.50
2023-04-28T11:34:56.432Z,9.50
2023-04-28T11:37:28.176Z,9.50
2023-04-28T11:40:00.537Z,9.50
2023-04-28T11:42:35.022Z,9.50
2023-04-28T11:45:06.572Z,9.50
2023-04-28T11:47:38.211Z,9.50
2023-04-28T11:50:10.542Z,9.40
2023-04-28T11:52:53.810Z,9.40
2023-04-28T11:55:26.051Z,9.40
2023-04-28T11:58:24.650Z,9.40
2023-04-28T12:01:11.384Z,9.40
2023-04-28T12:03:49.913Z,9.30
2023-04-28T12:06:21.850Z,9.30
2023-04-28T12:08:53.452Z,9.30
2023-04-28T12:11:25.930Z,9.30
2023-04-28T12:14:12.593Z,9.30
2023-04-28T12:16:49.275Z,9.30
2023-04-28T12:19:21.210Z,9.20
2023-04-28T12:22:06.165Z,9.20
2023-04-28T12:24:38.776Z,9.20
2023-04-28T12:27:22.557Z,9.20
2023-04-28T12:29:58.017Z,9.10
2023-04-28T12:32:42.921Z,9.10
2023-04-28T12:35:14.664Z,9.10
2023-04-28T12:37:46.653Z,9.10
2023-04-28T12:40:18.298Z,9.20
2023-04-28T12:42:49.459Z,9.10
2023-04-28T12:45:23.214Z,9.10
2023-04-28T12:47:54.227Z,9.10
2023-04-28T12:50:26.489Z,9.10
2023-04-28T12:52:59.358Z,9.10
2023-04-28T12:55:32.578Z,9.10
2023-04-28T12:58:03.795Z,9.00
2023-04-28T13:00:37.902Z,9.00
2023-04-28T13:03:09.504Z,8.90
2023-04-28T13:05:41.305Z,8.90
2023-04-28T13:08:14.277Z,8.90
2023-04-28T13:10:46.660Z,8.80
2023-04-28T13:13:18.180Z,8.80
2023-04-28T13:15:52.615Z,8.90
2023-04-28T13:18:24.533Z,8.90
2023-04-28T13:20:55.995Z,8.90
2023-04-28T13:23:27.351Z,8.90
2023-04-28T13:25:58.487Z,8.90
2023-04-28T13:28:31.058Z,8.90
2023-04-28T13:31:04.680Z,8.90
2023-04-28T13:33:36.651Z,8.90
2023-04-28T13:36:09.133Z,8.90
2023-04-28T13:38:40.225Z,8.90
2023-04-28T13:41:12.360Z,8.90
2023-04-28T13:43:44.617Z,8.90
2023-04-28T13:46:18.719Z,8.90
2023-04-28T13:48:51.970Z,8.90
2023-04-28T13:51:23.905Z,8.90
2023-04-28T13:53:55.671Z,8.90
2023-04-28T13:56:29.395Z,9.00
2023-04-28T13:59:01.148Z,9.10
2023-04-28T14:01:34.249Z,9.10
2023-04-28T14:04:06.027Z,9.20
2023-04-28T14:06:38.261Z,9.30
2023-04-28T14:09:09.942Z,9.30
2023-04-28T14:11:40.737Z,9.40
2023-04-28T14:14:13.160Z,9.40
2023-04-28T14:16:47.053Z,9.40
2023-04-28T14:19:19.544Z,9.50
2023-04-28T14:21:51.460Z,9.50
2023-04-28T14:24:23.527Z,9.60
2023-04-28T14:26:55.684Z,9.60
2023-04-28T14:29:27.167Z,9.70
2023-04-28T14:32:00.940Z,9.70
2023-04-28T14:34:32.691Z,9.80
2023-04-28T14:37:04.328Z,9.90
2023-04-28T14:39:36.256Z,9.90
2023-04-28T14:42:07.819Z,10.00
2023-04-28T14:44:39.100Z,10.10
2023-04-28T14:47:12.832Z,10.20
2023-04-28T14:49:43.801Z,10.20
2023-04-28T14:52:15.456Z,10.30
2023-04-28T14:54:47.060Z,10.40
2023-04-28T14:57:19.455Z,10.50
2023-04-28T14:59:53.209Z,10.60
2023-04-28T15:02:29.373Z,10.70
2023-04-28T15:05:02.263Z,10.80
2023-04-28T15:07:34.708Z,10.90
2023-04-28T15:10:06.336Z,11.10
2023-04-28T15:12:37.899Z,11.20
2023-04-28T15:15:09.653Z,11.30
2023-04-28T15:17:43.010Z,11.40
2023-04-28T15:20:15.273Z,11.60
2023-04-28T15:22:48.196Z,11.70
2023-04-28T15:25:19.661Z,11.70
2023-04-28T15:27:51.080Z,11.90
2023-04-28T15:30:23.523Z,12.00
2023-04-28T15:32:57.310Z,12.10
2023-04-28T15:35:29.357Z,12.20
2023-04-28T15:38:01.365Z,12.30
2023-04-28T15:40:32.793Z,12.40
2023-04-28T15:43:04.221Z,12.50
2023-04-28T15:45:35.887Z,12.50
2023-04-28T15:48:10.861Z,12.60
2023-04-28T15:50:41.718Z,12.70
2023-04-28T15:53:13.165Z,12.80
2023-04-28T15:55:45.122Z,12.90
2023-04-28T15:58:16.567Z,12.90
2023-04-28T16:00:48.564Z,13.00
2023-04-28T16:03:22.150Z,13.10
2023-04-28T16:05:53.586Z,13.30
2023-04-28T16:08:26.083Z,13.40
2023-04-28T16:10:56.855Z,13.50
2023-04-28T16:13:27.941Z,13.60
2023-04-28T16:15:58.979Z,13.70
2023-04-28T16:18:32.145Z,13.80
2023-04-28T16:21:03.258Z,13.80
2023-04-28T16:23:34.229Z,13.90
2023-04-28T16:26:05.561Z,14.00
2023-04-28T16:28:38.039Z,14.10
2023-04-28T16:31:09.594Z,14.20
2023-04-28T16:33:41.981Z,14.30
2023-04-28T16:36:13.529Z,14.50
2023-04-28T16:38:46.327Z,14.60
2023-04-28T16:41:18.097Z,14.60
2023-04-28T16:43:49.119Z,14.70
2023-04-28T16:46:22.053Z,14.90
2023-04-28T16:48:55.446Z,15.00
2023-04-28T16:51:26.998Z,15.10
2023-04-28T16:53:58.251Z,15.30
2023-04-28T16:56:29.008Z,15.40
2023-04-28T16:59:00.217Z,15.60
2023-04-28T17:01:31.810Z,15.70
2023-04-28T17:04:07.545Z,15.80
2023-04-28T17:06:38.768Z,15.90
2023-04-28T17:09:10.520Z,16.00
2023-04-28T17:11:41.615Z,16.10
2023-04-28T17:14:12.516Z,16.30
2023-04-28T17:16:44.534Z,16.30
2023-04-28T17:19:18.262Z,16.50
2023-04-28T17:21:50.648Z,16.70
2023-04-28T17:24:22.505Z,16.70
2023-04-28T17:26:53.448Z,16.80
2023-04-28T17:29:24.254Z,16.90
2023-04-28T17:31:56.287Z,16.90
2023-04-28T17:34:29.601Z,17.10
2023-04-28T17:37:00.403Z,17.20
2023-04-28T17:39:31.374Z,17.30
2023-04-28T17:42:03.616Z,17.30
2023-04-28T17:44:35.129Z,17.40
2023-04-28T17:47:06.044Z,17.50
2023-04-28T17:49:38.878Z,17.60
2023-04-28T17:52:10.388Z,17.70
2023-04-28T17:54:41.521Z,17.90
2023-04-28T17:57:12.662Z,18.00
2023-04-28T17:59:43.776Z,18.10
2023-04-28T18:02:15.861Z,18.20
2023-04-28T18:04:48.691Z,18.30
2023-04-28T18:07:20.645Z,18.40
2023-04-28T18:09:53.872Z,18.50
2023-04-28T18:12:25.238Z,18.50
2023-04-28T18:14:58.550Z,18.60
2023-04-28T18:17:29.540Z,18.70
2023-04-28T18:20:02.633Z,18.80
2023-04-28T18:22:34.208Z,18.90
2023-04-28T18:25:05.533Z,19.10
2023-04-28T18:27:36.561Z,19.10
2023-04-28T18:30:07.778Z,19.30
2023-04-28T18:32:38.583Z,19.40
2023-04-28T18:35:12.326Z,19.40
2023-04-28T18:37:45.875Z,19.50
2023-04-28T18:40:17.107Z,19.60
2023-04-28T18:42:48.268Z,19.70
2023-04-28T18:45:19.742Z,19.80
2023-04-28T18:47:50.856Z,19.90
2023-04-28T18:50:24.710Z,19.90
2023-04-28T18:52:55.493Z,20.00
2023-04-28T18:55:26.500Z,20.10
2023-04-28T18:57:58.138Z,20.10
2023-04-28T19:00:29.968Z,20.10
2023-04-28T19:03:00.962Z,20.20
2023-04-28T19:05:35.157Z,20.30
2023-04-28T19:08:10.844Z,20.40
2023-04-28T19:10:42.619Z,20.40
2023-04-28T19:13:15.299Z,20.60
2023-04-28T19:15:46.526Z,20.70
2023-04-28T19:18:18.471Z,20.80
2023-04-28T19:20:51.401Z,20.90
2023-04-28T19:23:22.973Z,21.00
2023-04-28T19:25:54.825Z,21.10
2023-04-28T19:28:27.047Z,21.20
2023-04-28T19:30:59.162Z,21.30
2023-04-28T19:33:31.363Z,21.40
2023-04-28T19:36:04.279Z,21.30
2023-04-28T19:38:36.168Z,21.40
2023-04-28T19:41:07.208Z,21.60
2023-04-28T19:43:39.576Z,21.80
2023-04-28T19:46:10.821Z,22.00
2023-04-28T19:48:43.539Z,22.10
2023-04-28T19:51:19.072Z,22.20
2023-04-28T19:53:51.544Z,22.40
2023-04-28T19:56:23.748Z,22.50
2023-04-28T19:58:55.330Z,22.60
2023-04-28T20:01:26.816Z,22.60
2023-04-28T20:03:59.202Z,22.80
2023-04-28T20:06:34.682Z,22.80
2023-04-28T20:09:06.779Z,22.70
2023-04-28T20:11:38.705Z,22.70
2023-04-28T20:14:10.452Z,22.90
2023-04-28T20:16:42.124Z,23.10
2023-04-28T20:19:13.317Z,23.30
2023-04-28T20:21:46.562Z,23.20
2023-04-28T20:24:17.848Z,23.30
2023-04-28T20:26:49.656Z,23.40
2023-04-28T20:29:21.191Z,23.50
2023-04-28T20:31:52.699Z,23.70
2023-04-28T20:34:24.737Z,23.90
2023-04-28T20:36:58.125Z,24.00
2023-04-28T20:39:29.214Z,24.10
2023-04-28T20:42:00.478Z,24.20
2023-04-28T20:44:31.250Z,24.40
2023-04-28T20:47:02.377Z,24.50
2023-04-28T20:49:33.669Z,24.80
2023-04-28T20:52:09.596Z,25.00
2023-04-28T20:54:41.365Z,25.20
2023-04-28T20:57:12.233Z,25.30
2023-04-28T20:59:43.009Z,25.30
2023-04-28T21:02:14.265Z,25.40
2023-04-28T21:04:45.512Z,25.40
2023-04-28T21:07:21.339Z,25.80
2023-04-28T21:09:53.114Z,25.90
2023-04-28T21:12:24.097Z,26.00
2023-04-28T21:14:55.215Z,26.20
2023-04-28T21:17:56.006Z,26.40
2023-04-28T21:20:26.870Z,26.40
2023-04-28T21:22:59.557Z,26.60
2023-04-28T21:25:30.650Z,26.70
2023-04-28T21:28:02.075Z,26.80
2023-04-28T21:30:34.303Z,27.00
2023-04-28T21:33:13.799Z,27.00
2023-04-28T21:35:44.629Z,27.20
2023-04-28T21:38:17.714Z,27.30
2023-04-28T21:40:49.466Z,27.60
2023-04-28T21:43:20.730Z,27.70
2023-04-28T21:45:51.664Z,27.90
2023-04-28T21:48:23.510Z,28.10
2023-04-28T21:50:54.314Z,28.20
2023-04-28T21:53:27.485Z,28.30
2023-04-28T21:55:58.909Z,28.20
2023-04-28T21:58:30.326Z,28.40
2023-04-28T22:01:02.891Z,28.30
2023-04-28T22:03:36.086Z,28.30
2023-04-28T22:06:07.487Z,28.40
2023-04-28T22:08:40.130Z,28.60
2023-04-28T22:11:11.194Z,28.80
2023-04-28T22:13:42.364Z,29.10
2023-04-28T22:16:14.130Z,29.30
2023-04-28T22:18:45.104Z,29.40
2023-04-28T22:21:16.003Z,29.40
2023-04-28T22:23:48.496Z,29.50
2023-04-28T22:26:19.943Z,29.60
2023-04-28T22:28:51.498Z,29.70
2023-04-28T22:31:22.534Z,29.80
2023-04-28T22:33:53.400Z,30.00
2023-04-28T22:36:24.445Z,30.10
2023-04-28T22:38:57.986Z,29.90
2023-04-28T22:41:28.888Z,29.90
2023-04-28T22:44:00.064Z,29.90
2023-04-28T22:46:31.477Z,30.20
2023-04-28T22:49:02.372Z,30.30
2023-04-28T22:51:33.441Z,30.40
2023-04-28T22:54:06.617Z,30.40
2023-04-28T22:56:38.699Z,30.30
2023-04-28T22:59:10.273Z,30.30
2023-04-28T23:01:41.533Z,30.30
2023-04-28T23:04:12.853Z,30.50
2023-04-28T23:06:44.395Z,30.60
2023-04-28T23:09:16.864Z,30.80
2023-04-28T23:11:47.761Z,30.80
2023-04-28T23:14:18.601Z,30.90
2023-04-28T23:16:49.458Z,30.80
2023-04-28T23:19:20.803Z,30.80
2023-04-28T23:21:52.026Z,30.80
2023-04-28T23:24:24.705Z,30.70
2023-04-28T23:26:55.928Z,30.70
2023-04-28T23:29:26.938Z,30.80
2023-04-28T23:31:57.959Z,30.60
2023-04-28T23:34:28.923Z,30.60
2023-04-28T23:37:00.554Z,30.40
2023-04-28T23:39:34.713Z,30.40
2023-04-28T23:42:06.020Z,30.40
2023-04-28T23:44:36.904Z,30.30
2023-04-28T23:47:08.067Z,30.30
2023-04-28T23:49:39.487Z,30.30
2023-04-28T23:52:10.366Z,30.30
2023-04-28T23:54:43.248Z,30.30
2023-04-28T23:57:14.294Z,30.40
2023-04-28T23:59:45.126Z,30.40
